sensor_id;sensor_type;location;lat;lon;timestamp;P1;durP1;ratioP1;P2;durP2;ratioP2
74872;SDS011;65883;44.726;37.764;2022-12-24T07:06:23;7.70;;;2.70;;
74872;SDS011;65883;44.726;37.764;2022-12-24T07:07:26;9.82;;;2.85;;
74872;SDS011;65883;44.726;37.764;2022-12-24T07:08:27;6.88;;;2.60;;
74872;SDS011;65883;44.726;37.764;2022-12-24T07:09:28;9.07;;;3.05;;
74872;SDS011;65883;44.726;37.764;2022-12-24T07:10:30;7.03;;;2.92;;
74872;SDS011;65883;44.726;37.764;2022-12-24T07:11:31;9.25;;;3.25;;
74872;SDS011;65883;44.726;37.764;2022-12-24T07:12:32;7.40;;;3.17;;
74872;SDS011;65883;44.726;37.764;2022-12-24T07:13:33;7.47;;;3.08;;
74872;SDS011;65883;44.726;37.764;2022-12-24T07:14:34;7.30;;;3.00;;
74872;SDS011;65883;44.726;37.764;2022-12-24T07:15:35;8.20;;;3.30;;
74872;SDS011;65883;44.726;37.764;2022-12-24T07:16:36;7.55;;;3.60;;
74872;SDS011;65883;44.726;37.764;2022-12-24T07:17:37;7.25;;;3.30;;
74872;SDS011;65883;44.726;37.764;2022-12-24T07:18:38;8.50;;;3.33;;
74872;SDS011;65883;44.726;37.764;2022-12-24T07:19:39;7.70;;;3.40;;
74872;SDS011;65883;44.726;37.764;2022-12-24T07:20:41;7.30;;;3.17;;
74872;SDS011;65883;44.726;37.764;2022-12-24T07:21:42;7.38;;;3.20;;
74872;SDS011;65883;44.726;37.764;2022-12-24T07:22:46;7.80;;;3.40;;
74872;SDS011;65883;44.726;37.764;2022-12-24T07:23:47;7.63;;;3.17;;
74872;SDS011;65883;44.726;37.764;2022-12-24T07:24:48;7.05;;;3.13;;
74872;SDS011;65883;44.726;37.764;2022-12-24T07:25:51;7.75;;;3.35;;
74872;SDS011;65883;44.726;37.764;2022-12-24T07:26:52;8.98;;;3.40;;
74872;SDS011;65883;44.726;37.764;2022-12-24T07:27:53;7.20;;;3.70;;
74872;SDS011;65883;44.726;37.764;2022-12-24T07:28:54;9.20;;;3.20;;
74872;SDS011;65883;44.726;37.764;2022-12-24T07:29:55;8.52;;;3.38;;
74872;SDS011;65883;44.726;37.764;2022-12-24T07:30:56;8.77;;;3.15;;
74872;SDS011;65883;44.726;37.764;2022-12-24T07:31:58;8.45;;;3.20;;
74872;SDS011;65883;44.726;37.764;2022-12-24T07:32:59;9.18;;;3.40;;
74872;SDS011;65883;44.726;37.764;2022-12-24T07:34:00;8.13;;;3.05;;
74872;SDS011;65883;44.726;37.764;2022-12-24T07:35:01;8.77;;;3.60;;
74872;SDS011;65883;44.726;37.764;2022-12-24T07:36:03;7.88;;;3.35;;
74872;SDS011;65883;44.726;37.764;2022-12-24T07:37:06;7.83;;;3.13;;
74872;SDS011;65883;44.726;37.764;2022-12-24T07:38:07;8.93;;;3.30;;
74872;SDS011;65883;44.726;37.764;2022-12-24T07:39:08;7.90;;;3.22;;
74872;SDS011;65883;44.726;37.764;2022-12-24T07:40:09;10.27;;;3.20;;
74872;SDS011;65883;44.726;37.764;2022-12-24T07:41:10;9.27;;;3.53;;
74872;SDS011;65883;44.726;37.764;2022-12-24T07:42:12;8.02;;;3.20;;
74872;SDS011;65883;44.726;37.764;2022-12-24T07:43:13;8.75;;;3.30;;
74872;SDS011;65883;44.726;37.764;2022-12-24T07:44:14;9.48;;;3.45;;
74872;SDS011;65883;44.726;37.764;2022-12-24T07:45:18;7.50;;;3.30;;
74872;SDS011;65883;44.726;37.764;2022-12-24T07:46:19;8.27;;;3.10;;
74872;SDS011;65883;44.726;37.764;2022-12-24T07:47:20;7.82;;;3.20;;
74872;SDS011;65883;44.726;37.764;2022-12-24T07:48:21;7.40;;;3.17;;
74872;SDS011;65883;44.726;37.764;2022-12-24T07:49:22;6.45;;;3.05;;
74872;SDS011;65883;44.726;37.764;2022-12-24T07:50:23;7.00;;;3.20;;
74872;SDS011;65883;44.726;37.764;2022-12-24T07:51:23;7.72;;;3.10;;
74872;SDS011;65883;44.726;37.764;2022-12-24T07:52:24;8.02;;;3.17;;
74872;SDS011;65883;44.726;37.764;2022-12-24T07:53:26;8.02;;;3.10;;
74872;SDS011;65883;44.726;37.764;2022-12-24T07:54:28;7.20;;;2.88;;
74872;SDS011;65883;44.726;37.764;2022-12-24T07:55:29;7.80;;;3.15;;
74872;SDS011;65883;44.726;37.764;2022-12-24T07:56:30;8.48;;;3.10;;
74872;SDS011;65883;44.726;37.764;2022-12-24T07:57:34;7.05;;;3.03;;
74872;SDS011;65883;44.726;37.764;2022-12-24T07:58:35;7.18;;;3.28;;
74872;SDS011;65883;44.726;37.764;2022-12-24T07:59:36;8.15;;;3.10;;
74872;SDS011;65883;44.726;37.764;2022-12-24T08:00:38;7.95;;;3.17;;
74872;SDS011;65883;44.726;37.764;2022-12-24T08:01:39;7.88;;;3.10;;
74872;SDS011;65883;44.726;37.764;2022-12-24T08:02:40;7.95;;;3.47;;
74872;SDS011;65883;44.726;37.764;2022-12-24T08:03:41;8.73;;;3.40;;
74872;SDS011;65883;44.726;37.764;2022-12-24T08:04:42;7.13;;;3.10;;
74872;SDS011;65883;44.726;37.764;2022-12-24T08:05:43;7.20;;;3.33;;
74872;SDS011;65883;44.726;37.764;2022-12-24T08:06:44;7.50;;;3.50;;
74872;SDS011;65883;44.726;37.764;2022-12-24T08:07:45;7.50;;;3.40;;
74872;SDS011;65883;44.726;37.764;2022-12-24T08:08:46;7.00;;;3.20;;
74872;SDS011;65883;44.726;37.764;2022-12-24T08:09:47;8.85;;;3.53;;
74872;SDS011;65883;44.726;37.764;2022-12-24T08:10:48;8.57;;;3.67;;
74872;SDS011;65883;44.726;37.764;2022-12-24T08:11:49;8.00;;;3.45;;
74872;SDS011;65883;44.726;37.764;2022-12-24T08:12:50;8.50;;;3.78;;
74872;SDS011;65883;44.726;37.764;2022-12-24T08:13:51;9.27;;;3.15;;
74872;SDS011;65883;44.726;37.764;2022-12-24T08:14:52;7.82;;;3.47;;
74872;SDS011;65883;44.726;37.764;2022-12-24T08:15:53;7.60;;;3.40;;
74872;SDS011;65883;44.726;37.764;2022-12-24T08:16:54;8.23;;;3.60;;
74872;SDS011;65883;44.726;37.764;2022-12-24T08:17:55;9.48;;;3.20;;
74872;SDS011;65883;44.726;37.764;2022-12-24T08:18:57;8.07;;;3.13;;
74872;SDS011;65883;44.726;37.764;2022-12-24T08:20:01;7.72;;;3.25;;
74872;SDS011;65883;44.726;37.764;2022-12-24T08:21:02;8.25;;;3.15;;
74872;SDS011;65883;44.726;37.764;2022-12-24T08:22:06;7.32;;;3.17;;
74872;SDS011;65883;44.726;37.764;2022-12-24T08:23:07;7.80;;;3.40;;
74872;SDS011;65883;44.726;37.764;2022-12-24T08:24:09;7.03;;;3.10;;
74872;SDS011;65883;44.726;37.764;2022-12-24T08:25:10;7.82;;;3.20;;
74872;SDS011;65883;44.726;37.764;2022-12-24T08:26:11;7.40;;;3.35;;
74872;SDS011;65883;44.726;37.764;2022-12-24T08:27:12;9.38;;;3.90;;
74872;SDS011;65883;44.726;37.764;2022-12-24T08:28:14;7.63;;;3.40;;
74872;SDS011;65883;44.726;37.764;2022-12-24T08:29:17;7.97;;;3.20;;
74872;SDS011;65883;44.726;37.764;2022-12-24T08:30:18;8.10;;;3.27;;
74872;SDS011;65883;44.726;37.764;2022-12-24T08:31:19;11.73;;;3.47;;
74872;SDS011;65883;44.726;37.764;2022-12-24T08:32:20;8.82;;;3.30;;
74872;SDS011;65883;44.726;37.764;2022-12-24T08:33:21;7.30;;;3.30;;
74872;SDS011;65883;44.726;37.764;2022-12-24T08:34:22;9.57;;;3.50;;
74872;SDS011;65883;44.726;37.764;2022-12-24T08:35:23;7.15;;;3.40;;
74872;SDS011;65883;44.726;37.764;2022-12-24T08:36:24;8.15;;;3.30;;
74872;SDS011;65883;44.726;37.764;2022-12-24T08:37:25;7.93;;;3.40;;
74872;SDS011;65883;44.726;37.764;2022-12-24T08:38:26;8.43;;;3.50;;
74872;SDS011;65883;44.726;37.764;2022-12-24T08:39:27;7.97;;;3.50;;
74872;SDS011;65883;44.726;37.764;2022-12-24T08:40:28;7.70;;;3.40;;
74872;SDS011;65883;44.726;37.764;2022-12-24T08:41:31;8.20;;;3.50;;
74872;SDS011;65883;44.726;37.764;2022-12-24T08:42:32;7.63;;;3.28;;
74872;SDS011;65883;44.726;37.764;2022-12-24T08:43:33;10.40;;;3.47;;
74872;SDS011;65883;44.726;37.764;2022-12-24T08:44:34;7.97;;;3.60;;
74872;SDS011;65883;44.726;37.764;2022-12-24T08:45:36;9.80;;;3.70;;
74872;SDS011;65883;44.726;37.764;2022-12-24T08:46:38;8.32;;;3.70;;
74872;SDS011;65883;44.726;37.764;2022-12-24T08:47:39;8.93;;;3.28;;
74872;SDS011;65883;44.726;37.764;2022-12-24T08:48:40;8.20;;;3.20;;
74872;SDS011;65883;44.726;37.764;2022-12-24T08:49:41;9.50;;;3.33;;
74872;SDS011;65883;44.726;37.764;2022-12-24T08:50:42;8.05;;;3.10;;
74872;SDS011;65883;44.726;37.764;2022-12-24T08:51:43;9.40;;;3.60;;
74872;SDS011;65883;44.726;37.764;2022-12-24T08:52:44;8.25;;;3.50;;
74872;SDS011;65883;44.726;37.764;2022-12-24T08:53:45;7.75;;;3.50;;
74872;SDS011;65883;44.726;37.764;2022-12-24T08:54:46;9.33;;;4.40;;
74872;SDS011;65883;44.726;37.764;2022-12-24T08:55:47;8.55;;;3.50;;
74872;SDS011;65883;44.726;37.764;2022-12-24T08:56:48;8.50;;;3.50;;
74872;SDS011;65883;44.726;37.764;2022-12-24T08:57:49;7.82;;;3.45;;
74872;SDS011;65883;44.726;37.764;2022-12-24T08:58:50;7.78;;;3.47;;
74872;SDS011;65883;44.726;37.764;2022-12-24T08:59:51;7.70;;;3.53;;
74872;SDS011;65883;44.726;37.764;2022-12-24T09:00:53;8.03;;;3.53;;
74872;SDS011;65883;44.726;37.764;2022-12-24T09:01:53;8.60;;;3.67;;
74872;SDS011;65883;44.726;37.764;2022-12-24T09:02:55;8.00;;;3.57;;
74872;SDS011;65883;44.726;37.764;2022-12-24T09:03:56;8.00;;;3.40;;
74872;SDS011;65883;44.726;37.764;2022-12-24T09:04:57;8.20;;;3.33;;
74872;SDS011;65883;44.726;37.764;2022-12-24T09:05:58;7.28;;;3.28;;
74872;SDS011;65883;44.726;37.764;2022-12-24T09:07:03;9.13;;;3.38;;
74872;SDS011;65883;44.726;37.764;2022-12-24T09:08:04;9.27;;;3.70;;
74872;SDS011;65883;44.726;37.764;2022-12-24T09:09:05;9.82;;;3.90;;
74872;SDS011;65883;44.726;37.764;2022-12-24T09:10:06;8.57;;;3.40;;
74872;SDS011;65883;44.726;37.764;2022-12-24T09:11:14;7.10;;;3.33;;
74872;SDS011;65883;44.726;37.764;2022-12-24T09:12:16;8.10;;;3.60;;
74872;SDS011;65883;44.726;37.764;2022-12-24T09:13:17;8.07;;;3.47;;
74872;SDS011;65883;44.726;37.764;2022-12-24T09:14:18;8.68;;;3.53;;
74872;SDS011;65883;44.726;37.764;2022-12-24T09:15:19;9.98;;;3.58;;
74872;SDS011;65883;44.726;37.764;2022-12-24T09:16:20;7.90;;;3.53;;
74872;SDS011;65883;44.726;37.764;2022-12-24T09:17:21;7.75;;;3.40;;
74872;SDS011;65883;44.726;37.764;2022-12-24T09:18:23;8.35;;;3.53;;
74872;SDS011;65883;44.726;37.764;2022-12-24T09:19:25;9.18;;;3.88;;
74872;SDS011;65883;44.726;37.764;2022-12-24T09:20:26;9.52;;;3.85;;
74872;SDS011;65883;44.726;37.764;2022-12-24T09:21:27;8.95;;;3.60;;
74872;SDS011;65883;44.726;37.764;2022-12-24T09:22:28;7.55;;;3.20;;
74872;SDS011;65883;44.726;37.764;2022-12-24T09:23:30;9.48;;;3.95;;
74872;SDS011;65883;44.726;37.764;2022-12-24T09:24:33;7.90;;;3.50;;
74872;SDS011;65883;44.726;37.764;2022-12-24T09:25:39;9.00;;;3.67;;
74872;SDS011;65883;44.726;37.764;2022-12-24T09:26:43;8.48;;;3.97;;
74872;SDS011;65883;44.726;37.764;2022-12-24T09:27:48;9.27;;;3.55;;
74872;SDS011;65883;44.726;37.764;2022-12-24T09:28:49;8.07;;;3.67;;
74872;SDS011;65883;44.726;37.764;2022-12-24T09:29:51;8.18;;;3.65;;
74872;SDS011;65883;44.726;37.764;2022-12-24T09:30:58;9.32;;;4.47;;
74872;SDS011;65883;44.726;37.764;2022-12-24T09:32:00;7.53;;;3.80;;
74872;SDS011;65883;44.726;37.764;2022-12-24T09:33:01;9.82;;;3.90;;
74872;SDS011;65883;44.726;37.764;2022-12-24T09:34:02;7.78;;;3.65;;
74872;SDS011;65883;44.726;37.764;2022-12-24T09:35:03;7.72;;;3.50;;
74872;SDS011;65883;44.726;37.764;2022-12-24T09:36:05;9.82;;;3.92;;
74872;SDS011;65883;44.726;37.764;2022-12-24T09:37:06;9.57;;;3.83;;
74872;SDS011;65883;44.726;37.764;2022-12-24T09:38:07;7.78;;;3.38;;
74872;SDS011;65883;44.726;37.764;2022-12-24T09:39:09;9.52;;;4.05;;
74872;SDS011;65883;44.726;37.764;2022-12-24T09:40:56;8.80;;;3.95;;
74872;SDS011;65883;44.726;37.764;2022-12-24T09:43:54;8.32;;;3.80;;
74872;SDS011;65883;44.726;37.764;2022-12-24T09:45:32;9.13;;;3.67;;
74872;SDS011;65883;44.726;37.764;2022-12-24T09:46:34;9.77;;;3.83;;
74872;SDS011;65883;44.726;37.764;2022-12-24T09:47:48;8.82;;;3.80;;
74872;SDS011;65883;44.726;37.764;2022-12-24T09:48:56;9.80;;;3.92;;
74872;SDS011;65883;44.726;37.764;2022-12-24T09:50:02;8.30;;;3.65;;
74872;SDS011;65883;44.726;37.764;2022-12-24T09:51:08;8.25;;;3.67;;
74872;SDS011;65883;44.726;37.764;2022-12-24T09:52:11;9.85;;;3.90;;
74872;SDS011;65883;44.726;37.764;2022-12-24T09:54:43;8.20;;;3.80;;
74872;SDS011;65883;44.726;37.764;2022-12-24T09:55:58;8.63;;;4.00;;
74872;SDS011;65883;44.726;37.764;2022-12-24T09:57:07;7.88;;;3.40;;
74872;SDS011;65883;44.726;37.764;2022-12-24T09:58:24;8.50;;;3.50;;
74872;SDS011;65883;44.726;37.764;2022-12-24T09:59:39;7.65;;;3.30;;
74872;SDS011;65883;44.726;37.764;2022-12-24T10:00:42;7.65;;;3.40;;
74872;SDS011;65883;44.726;37.764;2022-12-24T10:01:43;8.60;;;3.78;;
74872;SDS011;65883;44.726;37.764;2022-12-24T10:02:44;8.23;;;3.60;;
74872;SDS011;65883;44.726;37.764;2022-12-24T10:03:46;9.13;;;3.78;;
74872;SDS011;65883;44.726;37.764;2022-12-24T10:04:47;8.95;;;3.75;;
74872;SDS011;65883;44.726;37.764;2022-12-24T10:05:58;7.95;;;3.65;;
74872;SDS011;65883;44.726;37.764;2022-12-24T10:07:04;9.18;;;3.90;;
74872;SDS011;65883;44.726;37.764;2022-12-24T10:09:31;9.10;;;4.13;;
74872;SDS011;65883;44.726;37.764;2022-12-24T10:10:54;8.40;;;3.92;;
74872;SDS011;65883;44.726;37.764;2022-12-24T10:12:12;10.00;;;3.80;;
74872;SDS011;65883;44.726;37.764;2022-12-24T10:14:49;9.63;;;3.90;;
74872;SDS011;65883;44.726;37.764;2022-12-24T10:23:48;8.93;;;4.05;;
74872;SDS011;65883;44.726;37.764;2022-12-24T10:25:03;9.05;;;3.97;;
74872;SDS011;65883;44.726;37.764;2022-12-24T10:26:16;9.25;;;4.20;;
74872;SDS011;65883;44.726;37.764;2022-12-24T10:27:23;10.50;;;4.00;;
74872;SDS011;65883;44.726;37.764;2022-12-24T10:29:51;8.10;;;3.80;;
74872;SDS011;65883;44.726;37.764;2022-12-24T10:30:58;8.88;;;4.07;;
74872;SDS011;65883;44.726;37.764;2022-12-24T10:33:13;9.45;;;4.07;;
74872;SDS011;65883;44.726;37.764;2022-12-24T10:34:23;11.63;;;4.22;;
74872;SDS011;65883;44.726;37.764;2022-12-24T10:35:35;11.20;;;4.78;;
74872;SDS011;65883;44.726;37.764;2022-12-24T10:36:39;9.25;;;4.20;;
74872;SDS011;65883;44.726;37.764;2022-12-24T10:37:45;9.40;;;4.10;;
74872;SDS011;65883;44.726;37.764;2022-12-24T10:38:47;9.30;;;4.20;;
74872;SDS011;65883;44.726;37.764;2022-12-24T10:39:48;9.17;;;3.80;;
74872;SDS011;65883;44.726;37.764;2022-12-24T10:40:50;9.07;;;4.07;;
74872;SDS011;65883;44.726;37.764;2022-12-24T10:41:54;8.70;;;4.20;;
74872;SDS011;65883;44.726;37.764;2022-12-24T10:42:58;8.93;;;3.83;;
74872;SDS011;65883;44.726;37.764;2022-12-24T10:43:59;9.02;;;3.90;;
74872;SDS011;65883;44.726;37.764;2022-12-24T10:45:02;8.70;;;4.13;;
74872;SDS011;65883;44.726;37.764;2022-12-24T10:46:07;9.98;;;4.28;;
74872;SDS011;65883;44.726;37.764;2022-12-24T10:47:16;8.13;;;4.10;;
74872;SDS011;65883;44.726;37.764;2022-12-24T10:48:23;9.18;;;4.25;;
74872;SDS011;65883;44.726;37.764;2022-12-24T10:49:42;9.02;;;4.45;;
74872;SDS011;65883;44.726;37.764;2022-12-24T10:50:59;8.50;;;4.03;;
74872;SDS011;65883;44.726;37.764;2022-12-24T10:52:04;8.25;;;3.83;;
74872;SDS011;65883;44.726;37.764;2022-12-24T10:56:17;9.73;;;4.55;;
74872;SDS011;65883;44.726;37.764;2022-12-24T10:57:24;9.95;;;4.45;;
74872;SDS011;65883;44.726;37.764;2022-12-24T10:58:26;8.18;;;3.90;;
74872;SDS011;65883;44.726;37.764;2022-12-24T10:59:33;9.97;;;4.20;;
74872;SDS011;65883;44.726;37.764;2022-12-24T11:00:41;8.83;;;4.30;;
74872;SDS011;65883;44.726;37.764;2022-12-24T11:01:50;9.02;;;4.35;;
74872;SDS011;65883;44.726;37.764;2022-12-24T11:03:04;10.45;;;4.70;;
74872;SDS011;65883;44.726;37.764;2022-12-24T11:04:15;8.73;;;4.40;;
74872;SDS011;65883;44.726;37.764;2022-12-24T11:05:32;9.27;;;4.20;;
74872;SDS011;65883;44.726;37.764;2022-12-24T11:06:34;9.55;;;4.40;;
74872;SDS011;65883;44.726;37.764;2022-12-24T11:08:03;9.85;;;4.80;;
74872;SDS011;65883;44.726;37.764;2022-12-24T11:09:23;11.13;;;4.20;;
74872;SDS011;65883;44.726;37.764;2022-12-24T11:10:29;9.85;;;4.25;;
74872;SDS011;65883;44.726;37.764;2022-12-24T11:11:31;10.07;;;4.47;;
74872;SDS011;65883;44.726;37.764;2022-12-24T11:12:36;9.87;;;4.80;;
74872;SDS011;65883;44.726;37.764;2022-12-24T11:13:42;9.30;;;4.50;;
74872;SDS011;65883;44.726;37.764;2022-12-24T11:14:44;8.90;;;4.30;;
74872;SDS011;65883;44.726;37.764;2022-12-24T11:15:45;10.10;;;4.50;;
74872;SDS011;65883;44.726;37.764;2022-12-24T11:16:53;10.00;;;4.43;;
74872;SDS011;65883;44.726;37.764;2022-12-24T11:17:58;8.70;;;4.15;;
74872;SDS011;65883;44.726;37.764;2022-12-24T11:19:04;8.95;;;4.13;;
74872;SDS011;65883;44.726;37.764;2022-12-24T11:20:16;15.32;;;4.68;;
74872;SDS011;65883;44.726;37.764;2022-12-24T11:21:22;16.48;;;5.57;;
74872;SDS011;65883;44.726;37.764;2022-12-24T11:22:31;18.70;;;5.65;;
74872;SDS011;65883;44.726;37.764;2022-12-24T11:23:33;25.35;;;6.35;;
74872;SDS011;65883;44.726;37.764;2022-12-24T11:24:37;20.70;;;6.05;;
74872;SDS011;65883;44.726;37.764;2022-12-24T11:25:38;23.38;;;6.75;;
74872;SDS011;65883;44.726;37.764;2022-12-24T11:26:41;25.88;;;6.57;;
74872;SDS011;65883;44.726;37.764;2022-12-24T11:27:44;24.52;;;7.43;;
74872;SDS011;65883;44.726;37.764;2022-12-24T11:31:17;34.33;;;8.80;;
74872;SDS011;65883;44.726;37.764;2022-12-24T11:32:20;32.63;;;8.17;;
74872;SDS011;65883;44.726;37.764;2022-12-24T11:33:22;31.45;;;7.32;;
74872;SDS011;65883;44.726;37.764;2022-12-24T11:35:29;30.80;;;8.65;;
74872;SDS011;65883;44.726;37.764;2022-12-24T11:36:32;29.75;;;7.28;;
74872;SDS011;65883;44.726;37.764;2022-12-24T11:37:33;24.13;;;7.57;;
74872;SDS011;65883;44.726;37.764;2022-12-24T11:38:34;30.17;;;7.75;;
74872;SDS011;65883;44.726;37.764;2022-12-24T11:39:54;29.52;;;7.97;;
74872;SDS011;65883;44.726;37.764;2022-12-24T11:40:59;27.88;;;7.95;;
74872;SDS011;65883;44.726;37.764;2022-12-24T11:42:26;27.30;;;6.80;;
74872;SDS011;65883;44.726;37.764;2022-12-24T11:44:50;25.80;;;7.90;;
74872;SDS011;65883;44.726;37.764;2022-12-24T11:45:52;25.53;;;7.47;;
74872;SDS011;65883;44.726;37.764;2022-12-24T11:46:55;24.42;;;7.50;;
74872;SDS011;65883;44.726;37.764;2022-12-24T11:47:56;22.00;;;6.40;;
74872;SDS011;65883;44.726;37.764;2022-12-24T11:51:27;22.30;;;6.88;;
74872;SDS011;65883;44.726;37.764;2022-12-24T11:52:28;22.08;;;7.05;;
74872;SDS011;65883;44.726;37.764;2022-12-24T11:56:29;19.83;;;6.60;;
74872;SDS011;65883;44.726;37.764;2022-12-24T11:57:41;18.55;;;6.63;;
74872;SDS011;65883;44.726;37.764;2022-12-24T11:58:50;21.67;;;6.80;;
74872;SDS011;65883;44.726;37.764;2022-12-24T11:59:56;23.27;;;6.47;;
74872;SDS011;65883;44.726;37.764;2022-12-24T12:02:24;22.45;;;6.43;;
74872;SDS011;65883;44.726;37.764;2022-12-24T12:03:30;19.60;;;6.65;;
74872;SDS011;65883;44.726;37.764;2022-12-24T12:04:35;19.57;;;6.27;;
74872;SDS011;65883;44.726;37.764;2022-12-24T12:05:38;19.17;;;6.05;;
74872;SDS011;65883;44.726;37.764;2022-12-24T12:06:41;18.10;;;6.32;;
74872;SDS011;65883;44.726;37.764;2022-12-24T12:07:50;21.08;;;6.45;;
74872;SDS011;65883;44.726;37.764;2022-12-24T12:09:02;19.50;;;6.10;;
74872;SDS011;65883;44.726;37.764;2022-12-24T12:10:09;18.13;;;6.05;;
74872;SDS011;65883;44.726;37.764;2022-12-24T12:11:17;19.85;;;6.30;;
74872;SDS011;65883;44.726;37.764;2022-12-24T12:12:25;18.95;;;6.05;;
74872;SDS011;65883;44.726;37.764;2022-12-24T12:13:29;19.83;;;6.25;;
74872;SDS011;65883;44.726;37.764;2022-12-24T12:14:34;18.50;;;6.03;;
74872;SDS011;65883;44.726;37.764;2022-12-24T12:18:02;18.45;;;6.07;;
74872;SDS011;65883;44.726;37.764;2022-12-24T12:19:14;16.65;;;5.65;;
74872;SDS011;65883;44.726;37.764;2022-12-24T12:20:25;15.00;;;5.82;;
74872;SDS011;65883;44.726;37.764;2022-12-24T12:21:41;17.83;;;5.60;;
74872;SDS011;65883;44.726;37.764;2022-12-24T12:22:46;18.17;;;5.80;;
74872;SDS011;65883;44.726;37.764;2022-12-24T12:24:05;18.15;;;6.07;;
74872;SDS011;65883;44.726;37.764;2022-12-24T12:26:31;19.70;;;5.93;;
74872;SDS011;65883;44.726;37.764;2022-12-24T12:27:36;16.90;;;5.88;;
74872;SDS011;65883;44.726;37.764;2022-12-24T12:30:03;16.58;;;6.05;;
74872;SDS011;65883;44.726;37.764;2022-12-24T12:32:09;17.58;;;5.55;;
74872;SDS011;65883;44.726;37.764;2022-12-24T12:33:30;15.57;;;5.68;;
74872;SDS011;65883;44.726;37.764;2022-12-24T12:34:40;14.97;;;5.63;;
74872;SDS011;65883;44.726;37.764;2022-12-24T12:35:53;18.05;;;6.03;;
74872;SDS011;65883;44.726;37.764;2022-12-24T12:37:04;20.50;;;5.90;;
74872;SDS011;65883;44.726;37.764;2022-12-24T12:38:11;14.63;;;5.47;;
74872;SDS011;65883;44.726;37.764;2022-12-24T12:39:16;17.60;;;6.00;;
74872;SDS011;65883;44.726;37.764;2022-12-24T12:40:17;18.27;;;5.93;;
74872;SDS011;65883;44.726;37.764;2022-12-24T12:41:34;15.82;;;6.00;;
74872;SDS011;65883;44.726;37.764;2022-12-24T12:43:45;15.75;;;5.82;;
74872;SDS011;65883;44.726;37.764;2022-12-24T12:44:45;16.60;;;5.70;;
74872;SDS011;65883;44.726;37.764;2022-12-24T12:45:57;15.45;;;5.45;;
74872;SDS011;65883;44.726;37.764;2022-12-24T12:47:44;15.27;;;5.60;;
74872;SDS011;65883;44.726;37.764;2022-12-24T12:49:08;14.20;;;5.72;;
74872;SDS011;65883;44.726;37.764;2022-12-24T12:51:27;14.25;;;5.50;;
74872;SDS011;65883;44.726;37.764;2022-12-24T12:52:45;15.60;;;5.30;;
74872;SDS011;65883;44.726;37.764;2022-12-24T12:56:36;15.65;;;5.60;;
74872;SDS011;65883;44.726;37.764;2022-12-24T12:57:39;15.13;;;5.32;;
74872;SDS011;65883;44.726;37.764;2022-12-24T12:58:42;13.43;;;5.20;;
74872;SDS011;65883;44.726;37.764;2022-12-24T12:59:54;15.30;;;5.40;;
74872;SDS011;65883;44.726;37.764;2022-12-24T13:01:02;14.05;;;5.07;;
74872;SDS011;65883;44.726;37.764;2022-12-24T13:03:48;15.23;;;5.35;;
74872;SDS011;65883;44.726;37.764;2022-12-24T13:05:50;18.00;;;5.82;;
74872;SDS011;65883;44.726;37.764;2022-12-24T13:11:25;16.55;;;5.75;;
74872;SDS011;65883;44.726;37.764;2022-12-24T13:13:06;13.40;;;5.25;;
74872;SDS011;65883;44.726;37.764;2022-12-24T13:20:36;13.55;;;5.25;;
74872;SDS011;65883;44.726;37.764;2022-12-24T13:21:45;13.25;;;5.10;;
74872;SDS011;65883;44.726;37.764;2022-12-24T13:22:58;13.60;;;5.17;;
74872;SDS011;65883;44.726;37.764;2022-12-24T13:25:35;16.02;;;5.95;;
74872;SDS011;65883;44.726;37.764;2022-12-24T13:26:35;12.15;;;5.10;;
74872;SDS011;65883;44.726;37.764;2022-12-24T13:27:36;10.70;;;5.07;;
74872;SDS011;65883;44.726;37.764;2022-12-24T13:28:37;13.85;;;5.25;;
74872;SDS011;65883;44.726;37.764;2022-12-24T13:29:41;13.23;;;5.32;;
74872;SDS011;65883;44.726;37.764;2022-12-24T13:30:43;13.07;;;5.50;;
74872;SDS011;65883;44.726;37.764;2022-12-24T13:31:44;13.25;;;4.82;;
74872;SDS011;65883;44.726;37.764;2022-12-24T13:32:46;12.45;;;5.22;;
74872;SDS011;65883;44.726;37.764;2022-12-24T13:33:49;13.00;;;5.38;;
74872;SDS011;65883;44.726;37.764;2022-12-24T13:34:56;12.87;;;5.17;;
74872;SDS011;65883;44.726;37.764;2022-12-24T13:36:01;13.02;;;5.00;;
74872;SDS011;65883;44.726;37.764;2022-12-24T13:37:03;10.93;;;4.78;;
74872;SDS011;65883;44.726;37.764;2022-12-24T13:39:28;13.37;;;5.23;;
74872;SDS011;65883;44.726;37.764;2022-12-24T13:40:49;13.35;;;5.35;;
74872;SDS011;65883;44.726;37.764;2022-12-24T13:41:50;13.83;;;5.30;;
74872;SDS011;65883;44.726;37.764;2022-12-24T13:45:48;15.30;;;5.28;;
74872;SDS011;65883;44.726;37.764;2022-12-24T13:47:51;13.77;;;5.13;;
74872;SDS011;65883;44.726;37.764;2022-12-24T13:48:52;11.70;;;5.25;;
74872;SDS011;65883;44.726;37.764;2022-12-24T13:49:53;11.48;;;5.28;;
74872;SDS011;65883;44.726;37.764;2022-12-24T13:50:55;12.35;;;4.93;;
74872;SDS011;65883;44.726;37.764;2022-12-24T13:52:06;12.90;;;5.40;;
74872;SDS011;65883;44.726;37.764;2022-12-24T13:53:25;11.00;;;4.75;;
74872;SDS011;65883;44.726;37.764;2022-12-24T13:54:49;11.52;;;5.13;;
74872;SDS011;65883;44.726;37.764;2022-12-24T13:56:06;10.85;;;4.43;;
74872;SDS011;65883;44.726;37.764;2022-12-24T13:58:40;12.65;;;4.88;;
74872;SDS011;65883;44.726;37.764;2022-12-24T13:59:44;12.48;;;4.95;;
74872;SDS011;65883;44.726;37.764;2022-12-24T14:01:02;11.77;;;4.85;;
74872;SDS011;65883;44.726;37.764;2022-12-24T14:02:17;12.35;;;5.00;;
74872;SDS011;65883;44.726;37.764;2022-12-24T14:03:30;11.95;;;4.80;;
74872;SDS011;65883;44.726;37.764;2022-12-24T14:04:36;12.70;;;4.93;;
74872;SDS011;65883;44.726;37.764;2022-12-24T14:06:42;11.25;;;5.00;;
74872;SDS011;65883;44.726;37.764;2022-12-24T14:07:49;11.75;;;5.18;;
74872;SDS011;65883;44.726;37.764;2022-12-24T14:08:53;11.83;;;4.87;;
74872;SDS011;65883;44.726;37.764;2022-12-24T14:09:58;11.83;;;4.77;;
74872;SDS011;65883;44.726;37.764;2022-12-24T14:14:39;10.82;;;4.80;;
74872;SDS011;65883;44.726;37.764;2022-12-24T14:16:48;12.15;;;5.10;;
74872;SDS011;65883;44.726;37.764;2022-12-24T14:17:50;15.13;;;5.20;;
74872;SDS011;65883;44.726;37.764;2022-12-24T14:18:59;15.35;;;5.03;;
74872;SDS011;65883;44.726;37.764;2022-12-24T14:20:12;13.25;;;4.50;;
74872;SDS011;65883;44.726;37.764;2022-12-24T14:21:21;11.35;;;4.57;;
74872;SDS011;65883;44.726;37.764;2022-12-24T14:23:30;11.55;;;4.70;;
74872;SDS011;65883;44.726;37.764;2022-12-24T14:24:44;11.13;;;4.40;;
74872;SDS011;65883;44.726;37.764;2022-12-24T14:25:50;12.60;;;5.00;;
74872;SDS011;65883;44.726;37.764;2022-12-24T14:26:56;11.75;;;4.93;;
74872;SDS011;65883;44.726;37.764;2022-12-24T14:28:05;11.45;;;5.00;;
74872;SDS011;65883;44.726;37.764;2022-12-24T14:29:32;10.60;;;4.70;;
74872;SDS011;65883;44.726;37.764;2022-12-24T14:30:39;13.60;;;5.20;;
74872;SDS011;65883;44.726;37.764;2022-12-24T14:31:50;11.77;;;4.68;;
74872;SDS011;65883;44.726;37.764;2022-12-24T14:32:52;13.95;;;5.28;;
74872;SDS011;65883;44.726;37.764;2022-12-24T14:34:15;12.98;;;5.10;;
74872;SDS011;65883;44.726;37.764;2022-12-24T14:35:17;11.47;;;4.63;;
74872;SDS011;65883;44.726;37.764;2022-12-24T14:36:23;12.85;;;4.90;;
74872;SDS011;65883;44.726;37.764;2022-12-24T14:37:25;10.38;;;4.70;;
74872;SDS011;65883;44.726;37.764;2022-12-24T14:38:26;12.05;;;5.20;;
74872;SDS011;65883;44.726;37.764;2022-12-24T14:39:33;12.77;;;5.13;;
74872;SDS011;65883;44.726;37.764;2022-12-24T14:40:40;11.88;;;5.00;;
74872;SDS011;65883;44.726;37.764;2022-12-24T14:43:52;11.23;;;5.20;;